createdAt,value
2022-10-22T00:01:10.609Z,101152.66
2022-10-22T00:03:40.842Z,101150.58
2022-10-22T00:06:09.118Z,101147.44
2022-10-22T00:08:37.245Z,101143.77
2022-10-22T00:11:14.702Z,101142.39
2022-10-22T00:13:43.465Z,101142.20
2022-10-22T00:16:12.469Z,101138.55
2022-10-22T00:18:41.247Z,101137.50
2022-10-22T00:21:09.669Z,101137.50
2022-10-22T00:23:41.994Z,101135.77
2022-10-22T00:26:10.802Z,101138.02
2022-10-22T00:28:39.369Z,101133.14
2022-10-22T00:31:07.480Z,101133.67
2022-10-22T00:33:35.401Z,101132.63
2022-10-22T00:36:03.472Z,101132.10
2022-10-22T00:38:31.503Z,101132.97
2022-10-22T00:40:59.612Z,101127.03
2022-10-22T00:43:27.684Z,101125.82
2022-10-22T00:45:55.957Z,101125.99
2022-10-22T00:48:28.337Z,101123.73
2022-10-22T00:51:03.264Z,101125.13
2022-10-22T00:53:42.004Z,101121.46
2022-10-22T00:56:10.877Z,101121.98
2022-10-22T00:58:53.174Z,101122.16
2022-10-22T01:01:25.538Z,101121.29
2022-10-22T01:03:54.030Z,101118.85
2022-10-22T01:06:26.578Z,101121.46
2022-10-22T01:09:09.999Z,101117.98
2022-10-22T01:11:43.844Z,101112.92
2022-10-22T01:14:21.351Z,101111.52
2022-10-22T01:17:02.000Z,101114.14
2022-10-22T01:19:45.244Z,101110.13
2022-10-22T01:22:23.783Z,101105.42
2022-10-22T01:25:42.595Z,101105.25
2022-10-22T01:28:22.648Z,101104.73
2022-10-22T01:30:53.792Z,101100.73
2022-10-22T01:33:25.352Z,101092.36
2022-10-22T01:35:54.030Z,101092.00
2022-10-22T01:38:24.939Z,101092.52
2022-10-22T01:40:53.521Z,101088.69
2022-10-22T01:43:21.720Z,101086.42
2022-10-22T01:45:56.755Z,101083.64
2022-10-22T01:48:45.923Z,101084.69
2022-10-22T01:51:25.560Z,101082.95
2022-10-22T01:53:58.011Z,101081.04
2022-10-22T01:56:49.980Z,101080.52
2022-10-22T01:59:23.461Z,101078.77
2022-10-22T02:01:59.215Z,101077.21
2022-10-22T02:04:34.040Z,101074.41
2022-10-22T02:07:06.412Z,101075.29
2022-10-22T02:09:36.021Z,101067.80
2022-10-22T02:12:06.829Z,101065.36
2022-10-22T02:14:39.828Z,101060.30
2022-10-22T02:17:11.801Z,101059.09
2022-10-22T02:19:55.140Z,101057.16
2022-10-22T02:22:24.605Z,101051.95
2022-10-22T02:24:52.505Z,101049.16
2022-10-22T02:27:26.727Z,101052.29
2022-10-22T02:30:13.867Z,101056.65
2022-10-22T02:32:52.258Z,101052.81
2022-10-22T02:35:23.254Z,101049.52
2022-10-22T02:37:54.219Z,101047.41
2022-10-22T02:40:22.774Z,101045.32
2022-10-22T02:42:52.001Z,101047.41
2022-10-22T02:45:21.401Z,101053.34
2022-10-22T02:47:49.388Z,101058.91
2022-10-22T02:50:17.643Z,101062.22
2022-10-22T02:52:45.553Z,101060.48
2022-10-22T02:55:13.583Z,101060.66
2022-10-22T02:57:41.754Z,101061.52
2022-10-22T03:00:11.806Z,101063.45
2022-10-22T03:02:39.842Z,101059.27
2022-10-22T03:05:08.883Z,101057.52
2022-10-22T03:07:36.903Z,101058.57
2022-10-22T03:10:05.533Z,101055.42
2022-10-22T03:12:33.657Z,101053.52
2022-10-22T03:15:01.575Z,101056.13
2022-10-22T03:17:29.412Z,101055.95
2022-10-22T03:19:57.402Z,101060.48
2022-10-22T03:22:29.164Z,101060.13
2022-10-22T03:25:03.137Z,101064.48
2022-10-22T03:27:31.197Z,101063.27
2022-10-22T03:29:59.821Z,101067.80
2022-10-22T03:32:27.850Z,101072.33
2022-10-22T03:34:55.735Z,101068.50
2022-10-22T03:37:25.730Z,101071.98
2022-10-22T03:39:54.937Z,101074.41
2022-10-22T03:42:23.564Z,101077.73
2022-10-22T03:44:52.090Z,101074.06
2022-10-22T03:47:20.059Z,101071.80
2022-10-22T03:49:48.027Z,101071.80
2022-10-22T03:52:16.918Z,101067.96
2022-10-22T03:54:44.853Z,101068.31
2022-10-22T03:57:12.880Z,101062.21
2022-10-22T03:59:43.953Z,101061.00
2022-10-22T04:02:14.114Z,101064.66
2022-10-22T04:04:41.993Z,101074.77
2022-10-22T04:07:10.051Z,101079.47
2022-10-22T04:09:38.022Z,101083.48
2022-10-22T04:12:08.209Z,101091.48
2022-10-22T04:14:36.207Z,101085.57
2022-10-22T04:17:04.294Z,101088.36
2022-10-22T04:19:32.353Z,101084.88
2022-10-22T04:22:01.449Z,101080.52
2022-10-22T04:24:31.742Z,101078.77
2022-10-22T04:26:59.908Z,101072.33
2022-10-22T04:29:28.006Z,101062.74
2022-10-22T04:31:56.081Z,101063.45
2022-10-22T04:34:27.748Z,101062.74
2022-10-22T04:36:55.987Z,101058.22
2022-10-22T04:39:23.911Z,101059.27
2022-10-22T04:41:52.233Z,101059.61
2022-10-22T04:44:20.428Z,101059.78
2022-10-22T04:46:48.499Z,101067.96
2022-10-22T04:49:16.510Z,101070.05
2022-10-22T04:51:44.433Z,101063.09
2022-10-22T04:54:13.634Z,101054.90
2022-10-22T04:56:42.828Z,101058.04
2022-10-22T04:59:12.805Z,101065.52
2022-10-22T05:01:43.449Z,101064.31
2022-10-22T05:04:14.487Z,101069.55
2022-10-22T05:06:42.993Z,101074.25
2022-10-22T05:09:17.906Z,101070.06
2022-10-22T05:11:49.785Z,101062.73
2022-10-22T05:14:21.149Z,101050.20
2022-10-22T05:16:50.245Z,101038.87
2022-10-22T05:19:22.087Z,101034.34
2022-10-22T05:21:51.899Z,101021.62
2022-10-22T05:24:20.462Z,101019.52
2022-10-22T05:26:55.938Z,101017.43
2022-10-22T05:29:24.811Z,101016.56
2022-10-22T05:31:53.499Z,101016.92
2022-10-22T05:34:21.467Z,101022.48
2022-10-22T05:36:49.535Z,101027.20
2022-10-22T05:39:17.571Z,101040.09
2022-10-22T05:41:45.474Z,101050.73
2022-10-22T05:44:14.056Z,101057.34
2022-10-22T05:46:43.556Z,101062.23
2022-10-22T05:49:14.394Z,101052.98
2022-10-22T05:51:42.568Z,101049.50
2022-10-22T05:54:18.827Z,101047.77
2022-10-22T05:56:46.901Z,101054.04
2022-10-22T05:59:14.867Z,101071.63
2022-10-22T06:01:43.078Z,101072.33
2022-10-22T06:04:13.263Z,101055.42
2022-10-22T06:06:45.531Z,101044.63
2022-10-22T06:09:21.893Z,101062.22
2022-10-22T06:11:50.973Z,101081.91
2022-10-22T06:14:20.363Z,101082.08
2022-10-22T06:16:49.457Z,101080.68
2022-10-22T06:19:21.247Z,101087.48
2022-10-22T06:21:49.724Z,101086.26
2022-10-22T06:24:17.795Z,101085.39
2022-10-22T06:26:51.558Z,101086.09
2022-10-22T06:29:19.572Z,101073.17
2022-10-22T06:31:47.951Z,101071.95
2022-10-22T06:34:19.058Z,101068.81
2022-10-22T06:36:47.875Z,101073.52
2022-10-22T06:39:17.856Z,101072.64
2022-10-22T06:41:46.133Z,101074.21
2022-10-22T06:44:19.285Z,101075.95
2022-10-22T06:46:52.501Z,101074.73
2022-10-22T06:49:21.129Z,101080.67
2022-10-22T06:51:53.705Z,101082.41
2022-10-22T06:54:23.223Z,101078.58
2022-10-22T06:56:51.413Z,101079.46
2022-10-22T06:59:19.452Z,101082.95
2022-10-22T07:01:47.502Z,101082.77
2022-10-22T07:04:15.909Z,101084.33
2022-10-22T07:06:44.075Z,101083.45
2022-10-22T07:09:12.098Z,101076.14
2022-10-22T07:11:44.208Z,101080.33
2022-10-22T07:14:13.660Z,101078.57
2022-10-22T07:16:47.005Z,101086.23
2022-10-22T07:19:15.324Z,101093.91
2022-10-22T07:21:43.352Z,101102.45
2022-10-22T07:24:11.521Z,101105.94
2022-10-22T07:26:39.827Z,101104.72
2022-10-22T07:29:08.071Z,101101.23
2022-10-22T07:31:36.249Z,101097.56
2022-10-22T07:34:04.219Z,101102.62
2022-10-22T07:36:32.488Z,101105.05
2022-10-22T07:39:00.790Z,101095.80
2022-10-22T07:41:30.188Z,101094.06
2022-10-22T07:43:58.702Z,101101.73
2022-10-22T07:46:27.333Z,101106.80
2022-10-22T07:48:55.351Z,101111.16
2022-10-22T07:51:23.646Z,101110.99
2022-10-22T07:53:51.746Z,101109.95
2022-10-22T07:56:20.944Z,101111.35
2022-10-22T07:58:49.089Z,101107.00
2022-10-22T08:01:17.150Z,101104.73
2022-10-22T08:03:45.465Z,101102.81
2022-10-22T08:06:14.922Z,101103.33
2022-10-22T08:08:43.812Z,101104.72
2022-10-22T08:11:12.442Z,101102.27
2022-10-22T08:13:44.841Z,101107.15
2022-10-22T08:16:14.723Z,101106.45
2022-10-22T08:18:43.102Z,101105.91
2022-10-22T08:21:13.031Z,101106.42
2022-10-22T08:23:41.399Z,101110.08
2022-10-22T08:26:10.795Z,101109.19
2022-10-22T08:28:38.790Z,101110.21
2022-10-22T08:31:08.149Z,101112.28
2022-10-22T08:33:36.981Z,101105.81
2022-10-22T08:36:05.991Z,101104.59
2022-10-22T08:38:35.446Z,101097.41
2022-10-22T08:41:16.654Z,101095.46
2022-10-22T08:43:53.707Z,101098.58
2022-10-22T08:46:21.678Z,101098.57
2022-10-22T08:48:54.019Z,101105.02
2022-10-22T08:51:26.005Z,101103.63
2022-10-22T08:54:09.133Z,101110.95
2022-10-22T08:56:38.942Z,101115.13
2022-10-22T08:59:18.136Z,101113.90
2022-10-22T09:01:48.190Z,101109.38
2022-10-22T09:04:26.811Z,101107.98
2022-10-22T09:06:58.309Z,101098.38
2022-10-22T09:09:42.309Z,101094.20
2022-10-22T09:12:20.127Z,101090.52
2022-10-22T09:14:48.682Z,101096.64
2022-10-22T09:17:26.571Z,101096.98
2022-10-22T09:20:16.236Z,101100.30
2022-10-22T09:23:06.045Z,101099.62
2022-10-22T09:25:36.909Z,101098.75
2022-10-22T09:28:05.152Z,101103.10
2022-10-22T09:30:39.017Z,101108.16
2022-10-22T09:33:06.928Z,101113.73
2022-10-22T09:35:45.750Z,101117.21
2022-10-22T09:38:16.582Z,101121.23
2022-10-22T09:40:48.343Z,101123.66
2022-10-22T09:43:16.730Z,101118.95
2022-10-22T09:45:46.324Z,101117.55
2022-10-22T09:48:32.312Z,101114.58
2022-10-22T09:51:12.265Z,101111.98
2022-10-22T09:53:46.440Z,101112.52
2022-10-22T09:56:36.177Z,101114.77
2022-10-22T09:59:04.506Z,101113.20
2022-10-22T10:01:35.880Z,101114.77
2022-10-22T10:04:09.829Z,101113.89
2022-10-22T10:06:41.215Z,101116.48
2022-10-22T10:09:18.892Z,101111.41
2022-10-22T10:12:17.131Z,101103.54
2022-10-22T10:15:06.272Z,101101.09
2022-10-22T10:17:45.023Z,101101.08
2022-10-22T10:20:35.285Z,101096.33
2022-10-22T10:23:35.736Z,101094.23
2022-10-22T10:26:03.681Z,101092.30
2022-10-22T10:28:46.970Z,101088.95
2022-10-22T10:31:17.742Z,101089.45
2022-10-22T10:33:51.444Z,101085.77
2022-10-22T10:36:59.046Z,101084.71
2022-10-22T10:39:45.151Z,101088.21
2022-10-22T10:42:23.349Z,101089.42
2022-10-22T10:44:57.261Z,101092.37
2022-10-22T10:47:31.239Z,101091.66
2022-10-22T10:50:21.783Z,101083.95
2022-10-22T10:53:18.703Z,101087.80
2022-10-22T10:56:09.098Z,101091.48
2022-10-22T10:58:54.475Z,101090.09
2022-10-22T11:01:35.701Z,101094.96
2022-10-22T11:04:20.110Z,101089.89
2022-10-22T11:06:50.675Z,101081.50
2022-10-22T11:09:27.305Z,101086.19
2022-10-22T11:12:04.258Z,101084.95
2022-10-22T11:14:59.864Z,101081.10
2022-10-22T11:17:37.603Z,101080.02
2022-10-22T11:20:30.147Z,101079.30
2022-10-22T11:23:19.487Z,101076.85
2022-10-22T11:25:50.317Z,101069.66
2022-10-22T11:28:29.032Z,101070.35
2022-10-22T11:31:02.082Z,101063.70
2022-10-22T11:34:21.737Z,101057.41
2022-10-22T11:36:57.996Z,101056.55
2022-10-22T11:39:41.321Z,101058.45
2022-10-22T11:42:21.889Z,101060.53
2022-10-22T11:45:28.840Z,101060.86
2022-10-22T11:47:56.942Z,101050.94
2022-10-22T11:50:28.600Z,101056.65
2022-10-22T11:53:08.158Z,101056.63
2022-10-22T11:55:48.643Z,101058.20
2022-10-22T11:58:28.750Z,101062.02
2022-10-22T12:01:10.233Z,101058.85
2022-10-22T12:03:43.073Z,101055.69
2022-10-22T12:06:15.848Z,101054.06
2022-10-22T12:08:50.299Z,101053.48
2022-10-22T12:11:24.119Z,101056.77
2022-10-22T12:14:19.972Z,101059.89
2022-10-22T12:17:00.233Z,101064.06
2022-10-22T12:19:30.622Z,101062.63
2022-10-22T12:22:07.777Z,101070.96
2022-10-22T12:24:40.794Z,101070.04
2022-10-22T12:27:22.513Z,101070.50
2022-10-22T12:29:57.114Z,101075.55
2022-10-22T12:32:35.443Z,101069.73
2022-10-22T12:35:17.627Z,101069.69
2022-10-22T12:37:49.170Z,101064.60
2022-10-22T12:40:21.442Z,101061.23
2022-10-22T12:43:01.243Z,101070.11
2022-10-22T12:45:32.724Z,101070.26
2022-10-22T12:48:08.014Z,101066.20
2022-10-22T12:50:49.355Z,101066.70
2022-10-22T12:53:24.390Z,101063.02
2022-10-22T12:55:54.359Z,101068.39
2022-10-22T12:58:34.048Z,101062.40
2022-10-22T13:01:02.450Z,101059.39
2022-10-22T13:03:35.455Z,101055.16
2022-10-22T13:06:18.431Z,101056.52
2022-10-22T13:09:16.581Z,101052.51
2022-10-22T13:11:53.731Z,101051.83
2022-10-22T13:14:30.770Z,101052.16
2022-10-22T13:17:17.267Z,101050.05
2022-10-22T13:19:54.258Z,101050.41
2022-10-22T13:22:41.273Z,101049.37
2022-10-22T13:25:16.096Z,101053.39
2022-10-22T13:27:49.434Z,101054.28
2022-10-22T13:30:28.680Z,101053.38
2022-10-22T13:33:06.910Z,101052.15
2022-10-22T13:35:37.612Z,101048.14
2022-10-22T13:38:19.410Z,101054.94
2022-10-22T13:40:48.473Z,101050.59
2022-10-22T13:43:17.612Z,101053.38
2022-10-22T13:45:47.537Z,101054.61
2022-10-22T13:48:17.454Z,101049.18
2022-10-22T13:50:45.782Z,101048.66
2022-10-22T13:53:19.609Z,101046.19
2022-10-22T13:55:47.790Z,101046.89
2022-10-22T13:58:21.345Z,101047.40
2022-10-22T14:00:52.629Z,101044.41
2022-10-22T14:03:23.730Z,101043.17
2022-10-22T14:05:52.093Z,101039.13
2022-10-22T14:08:22.436Z,101039.98
2022-10-22T14:10:50.508Z,101041.55
2022-10-22T14:13:20.702Z,101044.50
2022-10-22T14:15:50.996Z,101045.70
2022-10-22T14:18:31.737Z,101041.30
2022-10-22T14:21:05.400Z,101043.39
2022-10-22T14:23:36.183Z,101041.79
2022-10-22T14:26:04.932Z,101044.39
2022-10-22T14:28:41.039Z,101044.02
2022-10-22T14:31:14.576Z,101043.84
2022-10-22T14:33:42.848Z,101043.13
2022-10-22T14:36:14.505Z,101039.95
2022-10-22T14:38:43.566Z,101041.88
2022-10-22T14:41:21.703Z,101043.45
2022-10-22T14:43:50.696Z,101041.88
2022-10-22T14:46:19.484Z,101044.66
2022-10-22T14:48:47.862Z,101052.71
2022-10-22T14:51:20.925Z,101050.08
2022-10-22T14:53:49.301Z,101050.27
2022-10-22T14:56:21.556Z,101053.60
2022-10-22T14:58:50.032Z,101055.89
2022-10-22T15:01:18.048Z,101055.73
2022-10-22T15:03:46.026Z,101059.92
2022-10-22T15:06:14.088Z,101060.08
2022-10-22T15:08:42.110Z,101064.65
2022-10-22T15:11:13.413Z,101067.27
2022-10-22T15:13:42.358Z,101066.08
2022-10-22T15:16:11.782Z,101068.36
2022-10-22T15:18:39.864Z,101070.11
2022-10-22T15:21:18.453Z,101073.95
2022-10-22T15:23:46.445Z,101074.30
2022-10-22T15:26:14.826Z,101074.80
2022-10-22T15:28:43.635Z,101078.66
2022-10-22T15:31:14.497Z,101079.89
2022-10-22T15:33:43.654Z,101081.80
2022-10-22T15:36:16.303Z,101084.59
2022-10-22T15:38:44.545Z,101088.09
2022-10-22T15:41:13.698Z,101090.17
2022-10-22T15:43:42.202Z,101094.36
2022-10-22T15:46:14.263Z,101091.72
2022-10-22T15:48:43.022Z,101097.83
2022-10-22T15:51:15.910Z,101100.27
2022-10-22T15:53:44.300Z,101100.59
2022-10-22T15:56:12.357Z,101100.58
2022-10-22T15:58:40.322Z,101104.60
2022-10-22T16:01:11.690Z,101105.30
2022-10-22T16:03:41.029Z,101108.08
2022-10-22T16:06:09.558Z,101112.10
2022-10-22T16:08:38.813Z,101115.96
2022-10-22T16:11:06.823Z,101118.76
2022-10-22T16:13:37.018Z,101118.75
2022-10-22T16:16:08.124Z,101123.27
2022-10-22T16:18:36.462Z,101125.02
2022-10-22T16:21:04.632Z,101125.71
2022-10-22T16:23:32.600Z,101129.73
2022-10-22T16:26:03.687Z,101132.01
2022-10-22T16:28:31.791Z,101135.86
2022-10-22T16:31:09.201Z,101131.66
2022-10-22T16:33:43.118Z,101134.34
2022-10-22T16:36:19.457Z,101134.17
2022-10-22T16:38:48.585Z,101132.42
2022-10-22T16:41:19.712Z,101136.43
2022-10-22T16:43:51.060Z,101142.04
2022-10-22T16:46:21.146Z,101138.89
2022-10-22T16:48:51.359Z,101144.66
2022-10-22T16:51:22.030Z,101143.10
2022-10-22T16:53:52.558Z,101144.50
2022-10-22T16:56:21.216Z,101146.27
2022-10-22T16:58:52.530Z,101142.94
2022-10-22T17:01:22.673Z,101143.80
2022-10-22T17:03:50.675Z,101145.73
2022-10-22T17:06:18.581Z,101148.89
2022-10-22T17:08:46.745Z,101149.41
2022-10-22T17:11:18.270Z,101153.61
2022-10-22T17:13:49.204Z,101156.56
2022-10-22T17:16:19.631Z,101157.77
2022-10-22T17:18:48.016Z,101156.19
2022-10-22T17:21:17.169Z,101154.95
2022-10-22T17:23:45.763Z,101157.72
2022-10-22T17:26:17.474Z,101159.27
2022-10-22T17:28:45.526Z,101160.85
2022-10-22T17:31:33.040Z,101161.19
2022-10-22T17:34:01.316Z,101162.42
2022-10-22T17:36:33.286Z,101163.64
2022-10-22T17:39:07.694Z,101161.70
2022-10-22T17:41:37.834Z,101165.55
2022-10-22T17:44:09.135Z,101163.26
2022-10-22T17:46:38.690Z,101161.66
2022-10-22T17:49:13.818Z,101163.23
2022-10-22T17:51:41.778Z,101168.30
2022-10-22T17:54:10.418Z,101167.74
2022-10-22T17:56:40.415Z,101161.45
2022-10-22T17:59:12.850Z,101164.09
2022-10-22T18:01:45.661Z,101162.14
2022-10-22T18:04:16.971Z,101164.25
2022-10-22T18:06:47.216Z,101168.44
2022-10-22T18:09:18.709Z,101167.74
2022-10-22T18:11:52.819Z,101166.51
2022-10-22T18:14:22.429Z,101168.59
2022-10-22T18:16:51.125Z,101170.70
2022-10-22T18:19:22.593Z,101172.27
2022-10-22T18:21:50.769Z,101170.50
2022-10-22T18:24:18.937Z,101170.32
2022-10-22T18:26:47.011Z,101164.87
2022-10-22T18:29:18.274Z,101165.22
2022-10-22T18:31:47.573Z,101165.58
2022-10-22T18:34:17.775Z,101163.11
2022-10-22T18:36:48.509Z,101162.42
2022-10-22T18:39:17.027Z,101166.25
2022-10-22T18:41:45.065Z,101168.35
2022-10-22T18:44:14.774Z,101166.77
2022-10-22T18:46:43.079Z,101166.60
2022-10-22T18:49:18.392Z,101167.11
2022-10-22T18:51:53.126Z,101168.70
2022-10-22T18:54:23.676Z,101167.30
2022-10-22T18:56:56.309Z,101170.27
2022-10-22T18:59:28.150Z,101172.90
2022-10-22T19:02:00.720Z,101169.92
2022-10-22T19:04:37.193Z,101172.55
2022-10-22T19:07:05.986Z,101171.00
2022-10-22T19:09:34.219Z,101175.40
2022-10-22T19:12:02.417Z,101180.48
2022-10-22T19:14:30.532Z,101181.16
2022-10-22T19:16:58.494Z,101184.32
2022-10-22T19:19:27.024Z,101185.55
2022-10-22T19:21:56.784Z,101189.92
2022-10-22T19:24:24.754Z,101189.05
2022-10-22T19:26:53.671Z,101192.02
2022-10-22T19:29:22.046Z,101198.50
2022-10-22T19:31:51.295Z,101201.30
2022-10-22T19:34:20.677Z,101201.66
2022-10-22T19:36:51.810Z,101204.99
2022-10-22T19:39:20.347Z,101212.20
2022-10-22T19:41:48.297Z,101209.91
2022-10-22T19:44:16.175Z,101213.79
2022-10-22T19:46:44.149Z,101216.06
2022-10-22T19:49:12.118Z,101216.94
2022-10-22T19:51:40.498Z,101219.21
2022-10-22T19:54:11.739Z,101218.71
2022-10-22T19:56:41.447Z,101223.96
2022-10-22T19:59:09.929Z,101225.37
2022-10-22T20:01:38.692Z,101229.59
2022-10-22T20:04:06.765Z,101231.35
2022-10-22T20:06:34.751Z,101235.04
2022-10-22T20:09:02.983Z,101237.48
2022-10-22T20:11:31.099Z,101240.46
2022-10-22T20:13:59.473Z,101242.73
2022-10-22T20:16:30.142Z,101246.96
2022-10-22T20:19:03.977Z,101245.56
2022-10-22T20:21:33.006Z,101250.66
2022-10-22T20:24:01.453Z,101256.96
2022-10-22T20:26:29.635Z,101257.30
2022-10-22T20:28:58.329Z,101258.17
2022-10-22T20:31:29.410Z,101260.96
2022-10-22T20:33:59.022Z,101260.95
2022-10-22T20:36:28.406Z,101262.02
2022-10-22T20:39:06.417Z,101260.08
2022-10-22T20:41:35.263Z,101264.12
2022-10-22T20:44:03.481Z,101262.89
2022-10-22T20:46:32.695Z,101265.67
2022-10-22T20:49:14.956Z,101264.98
2022-10-22T20:51:43.131Z,101265.84
2022-10-22T20:54:11.424Z,101268.45
2022-10-22T20:56:41.012Z,101270.71
2022-10-22T20:59:12.269Z,101272.64
2022-10-22T21:02:01.025Z,101273.33
2022-10-22T21:04:29.493Z,101274.21
2022-10-22T21:06:58.248Z,101272.09
2022-10-22T21:09:26.251Z,101270.84
2022-10-22T21:14:27.098Z,101270.98
2022-10-22T21:16:55.065Z,101271.48
2022-10-22T21:19:23.439Z,101275.65
2022-10-22T21:21:51.411Z,101276.67
2022-10-22T21:24:24.687Z,101278.94
2022-10-22T21:26:53.410Z,101281.89
2022-10-22T21:29:21.663Z,101281.89
2022-10-22T21:31:49.837Z,101281.16
2022-10-22T21:34:17.744Z,101281.67
2022-10-22T21:36:48.558Z,101281.14
2022-10-22T21:39:16.508Z,101281.30
2022-10-22T21:41:44.386Z,101287.60
2022-10-22T21:44:12.750Z,101285.48
2022-10-22T21:46:40.725Z,101289.34
2022-10-22T21:49:08.663Z,101286.35
2022-10-22T21:51:38.403Z,101290.20
2022-10-22T21:54:06.309Z,101287.75
2022-10-22T21:56:36.514Z,101286.88
2022-10-22T21:59:07.780Z,101290.02
2022-10-22T22:01:36.743Z,101290.36
2022-10-22T22:04:04.790Z,101292.08
2022-10-22T22:06:33.820Z,101289.44
2022-10-22T22:09:05.427Z,101294.52
2022-10-22T22:11:33.856Z,101293.64
2022-10-22T22:14:01.783Z,101295.55
2022-10-22T22:16:32.118Z,101300.29
2022-10-22T22:21:32.280Z,101308.90
2022-10-22T22:24:00.617Z,101307.15
2022-10-22T22:26:30.225Z,101311.19
2022-10-22T22:28:59.779Z,101311.02
2022-10-22T22:31:33.354Z,101312.79
2022-10-22T22:34:08.056Z,101312.45
2022-10-22T22:36:39.101Z,101316.14
2022-10-22T22:39:10.602Z,101320.00
2022-10-22T22:41:38.633Z,101320.16
2022-10-22T22:44:06.993Z,101318.60
2022-10-22T22:46:35.749Z,101321.22
2022-10-22T22:49:03.969Z,101320.51
2022-10-22T22:51:32.228Z,101322.41
2022-10-22T22:54:01.296Z,101322.23
2022-10-22T22:56:31.849Z,101325.02
2022-10-22T22:59:00.335Z,101325.36
2022-10-22T23:01:37.742Z,101326.73
2022-10-22T23:04:11.423Z,101326.04
2022-10-22T23:06:40.229Z,101327.08
2022-10-22T23:09:11.051Z,101328.65
2022-10-22T23:11:40.960Z,101330.92
2022-10-22T23:14:12.312Z,101328.64
2022-10-22T23:16:45.706Z,101330.73
2022-10-22T23:19:16.229Z,101331.42
2022-10-22T23:21:53.469Z,101328.80
2022-10-22T23:24:27.904Z,101321.27
2022-10-22T23:26:59.620Z,101322.84
2022-10-22T23:29:30.050Z,101327.92
2022-10-22T23:32:03.030Z,101330.20
2022-10-22T23:34:31.787Z,101335.98
2022-10-22T23:37:00.267Z,101336.50
2022-10-22T23:39:29.874Z,101339.13
2022-10-22T23:41:58.471Z,101342.11
2022-10-22T23:44:26.470Z,101343.15
2022-10-22T23:46:55.381Z,101345.60
2022-10-22T23:49:23.384Z,101346.14
2022-10-22T23:51:51.353Z,101350.85
2022-10-22T23:54:19.530Z,101349.63
2022-10-22T23:56:47.698Z,101353.65
2022-10-22T23:59:16.128Z,101352.59
